createdAt,value
2022-11-22T00:11:05.260Z,4.2
2022-11-22T01:59:09.122Z,3.2
2022-11-22T03:51:32.434Z,2.1
2022-11-22T03:57:23.533Z,2.4
2022-11-22T04:03:14.361Z,2.2
2022-11-22T04:09:08.748Z,2.4
2022-11-22T04:15:00.826Z,2.6
2022-11-22T04:20:52.461Z,2.3
2022-11-22T04:26:43.682Z,2.8
2022-11-22T04:32:43.371Z,2.9
2022-11-22T04:38:35.485Z,2.4
2022-11-22T04:44:28.471Z,2.3
2022-11-22T04:50:23.726Z,2.5
2022-11-22T04:56:18.040Z,2.9
2022-11-22T05:02:30.585Z,2.6
2022-11-22T05:08:28.733Z,2.3
2022-11-22T05:14:24.606Z,2.4
2022-11-22T05:20:17.644Z,2.8
2022-11-22T05:26:11.271Z,2.4
2022-11-22T05:32:05.699Z,2.8
2022-11-22T05:37:58.651Z,3.5
2022-11-22T05:43:56.601Z,4.5
2022-11-22T05:49:48.577Z,3.9
2022-11-22T05:55:40.599Z,3.2
2022-11-22T06:01:33.052Z,2.9
2022-11-22T06:07:27.090Z,3.6
2022-11-22T06:13:18.296Z,3.8
2022-11-22T06:19:14.293Z,3.7
2022-11-22T06:25:17.256Z,5.2
2022-11-22T06:31:11.195Z,4
2022-11-22T06:37:03.516Z,4.6
2022-11-22T06:42:57.213Z,7.5
2022-11-22T06:48:52.082Z,5.5
2022-11-22T06:54:45.029Z,4.9
2022-11-22T07:00:40.312Z,7.1
2022-11-22T07:06:31.046Z,6.8
2022-11-22T07:12:22.450Z,5.5
2022-11-22T07:18:14.498Z,5.4
2022-11-22T07:24:04.727Z,5.4
2022-11-22T07:30:03.182Z,5.3
2022-11-22T07:35:54.237Z,5
2022-11-22T07:41:45.768Z,3.2
2022-11-22T07:47:37.340Z,3.9
2022-11-22T07:53:31.448Z,4.1
2022-11-22T07:59:21.081Z,5.9
2022-11-22T08:05:15.818Z,3.6
2022-11-22T08:11:06.411Z,3.6
2022-11-22T08:17:00.499Z,3.6
2022-11-22T08:22:51.635Z,2.8
2022-11-22T08:28:43.923Z,3
2022-11-22T08:34:38.174Z,2.6
2022-11-22T08:40:35.529Z,2.1
2022-11-22T08:46:30.702Z,2.3
2022-11-22T08:52:24.407Z,2.6
2022-11-22T08:58:17.163Z,2.6
2022-11-22T09:04:08.370Z,2.6
2022-11-22T09:10:00.366Z,2.6
2022-11-22T09:15:51.362Z,2.5
2022-11-22T09:21:44.633Z,2.6
2022-11-22T09:27:45.882Z,2.8
2022-11-22T09:33:36.767Z,2.8
2022-11-22T09:39:27.363Z,2.8
2022-11-22T09:45:22.399Z,2.5
2022-11-22T09:52:26.566Z,2.4
2022-11-22T09:58:31.164Z,2.3
2022-11-22T10:04:40.695Z,2.1
2022-11-22T10:10:32.111Z,2.8
2022-11-22T10:19:03.330Z,1.8
2022-11-22T10:26:09.224Z,2.9
2022-11-22T10:33:26.208Z,2.7
2022-11-22T10:39:15.435Z,2.2
2022-11-22T10:45:06.183Z,2.9
2022-11-22T10:50:58.681Z,3.5
2022-11-22T10:56:50.282Z,2.6
2022-11-22T11:02:43.165Z,1.9
2022-11-22T11:10:35.623Z,2.3
2022-11-22T11:16:25.087Z,2.2
2022-11-22T11:22:16.274Z,1.8
2022-11-22T11:28:08.229Z,1.9
2022-11-22T11:34:06.634Z,1.8
2022-11-22T11:39:57.079Z,1.9
2022-11-22T11:45:49.847Z,2.3
2022-11-22T11:51:40.569Z,1.9
2022-11-22T11:57:33.833Z,2
2022-11-22T12:03:25.001Z,1.7
2022-11-22T12:09:15.288Z,1.7
2022-11-22T12:15:19.626Z,1.7
2022-11-22T12:21:09.170Z,1.6
2022-11-22T12:26:59.285Z,1.2
2022-11-22T12:32:48.343Z,1.4
2022-11-22T12:38:39.219Z,1.3
2022-11-22T12:44:32.270Z,1.1
2022-11-22T12:50:22.774Z,1.1
2022-11-22T12:56:13.062Z,1
2022-11-22T13:02:03.738Z,0.9
2022-11-22T13:07:55.828Z,1
2022-11-22T13:13:45.575Z,1.4
2022-11-22T13:19:37.234Z,1.4
2022-11-22T13:25:27.432Z,1.1
2022-11-22T13:31:20.516Z,0.8
2022-11-22T13:37:10.544Z,1.3
2022-11-22T13:43:00.060Z,1.4
2022-11-22T13:48:49.855Z,1.3
2022-11-22T13:54:41.034Z,1
2022-11-22T14:00:30.237Z,1
2022-11-22T14:06:19.977Z,1.5
2022-11-22T14:12:10.215Z,1
2022-11-22T14:17:59.327Z,1.1
2022-11-22T14:26:07.959Z,0.9
2022-11-22T14:33:05.444Z,0.4
2022-11-22T14:38:53.308Z,0.5
2022-11-22T14:44:43.353Z,0.5
2022-11-22T14:50:33.150Z,0.5
2022-11-22T14:56:23.478Z,0.7
2022-11-22T15:02:15.296Z,0.7
2022-11-22T15:09:59.803Z,0.7
2022-11-22T15:57:27.658Z,0.6
2022-11-22T16:03:11.491Z,0.7
2022-11-22T16:09:00.922Z,0.8
2022-11-22T16:14:51.334Z,0.7
2022-11-22T16:20:41.806Z,1
2022-11-22T16:26:34.040Z,0.9
2022-11-22T16:32:24.406Z,0.8
2022-11-22T16:38:15.439Z,0.9
2022-11-22T16:44:04.918Z,0.9
2022-11-22T16:49:55.162Z,0.9
2022-11-22T16:55:45.607Z,1.2
2022-11-22T17:01:36.162Z,1.2
2022-11-22T17:07:27.363Z,1.2
2022-11-22T17:13:17.439Z,1.2
2022-11-22T17:19:37.825Z,1.2
2022-11-22T17:25:34.102Z,1.4
2022-11-22T17:31:25.329Z,1.4
2022-11-22T17:37:15.155Z,2
2022-11-22T17:43:06.228Z,2
2022-11-22T17:48:56.032Z,1.9
2022-11-22T17:56:27.583Z,1.9
2022-11-22T18:03:25.053Z,2.1
2022-11-22T18:13:27.315Z,1.8
2022-11-22T18:19:14.422Z,1.9
2022-11-22T18:25:08.126Z,1.6
2022-11-22T18:30:58.290Z,2
2022-11-22T18:37:57.920Z,2.1
2022-11-22T18:44:56.911Z,2.4
2022-11-22T18:51:56.933Z,2.7
2022-11-22T19:02:27.039Z,1.9
2022-11-22T19:08:14.526Z,1.9
2022-11-22T19:15:12.430Z,2
2022-11-22T19:21:03.875Z,2.2
2022-11-22T19:28:04.629Z,2.2
2022-11-22T19:37:24.252Z,2.2
2022-11-22T19:43:18.632Z,2
2022-11-22T19:50:16.655Z,2.1
2022-11-22T19:56:09.695Z,2.1
2022-11-22T20:02:01.269Z,2.2
2022-11-22T20:07:51.613Z,2.2
2022-11-22T20:18:26.845Z,2.3
2022-11-22T20:24:14.054Z,2.6
2022-11-22T20:30:03.602Z,3.5
2022-11-22T20:35:55.034Z,3.1
2022-11-22T20:41:45.954Z,3.2
2022-11-22T20:49:53.998Z,3.4
2022-11-22T20:55:41.597Z,3.6
2022-11-22T21:01:32.219Z,3.2
2022-11-22T21:07:22.833Z,3.6
2022-11-22T21:13:13.164Z,3.9
2022-11-22T21:19:04.064Z,3.3
2022-11-22T21:24:56.839Z,3.5
2022-11-22T21:30:47.758Z,3.6
2022-11-22T21:36:38.944Z,3.3
2022-11-22T21:42:33.560Z,4
2022-11-22T21:49:33.349Z,4.8
2022-11-22T21:55:22.354Z,3.8
2022-11-22T22:01:20.371Z,3.8
2022-11-22T22:08:03.510Z,2.9
2022-11-22T22:13:51.344Z,3.6
2022-11-22T22:19:41.464Z,3.5
2022-11-22T22:25:32.879Z,3.9
2022-11-22T22:31:24.626Z,3.6
2022-11-22T22:37:15.054Z,4.4
2022-11-22T22:43:04.920Z,2.8
2022-11-22T22:48:55.436Z,3.2
2022-11-22T22:54:46.720Z,2.8
2022-11-22T23:00:37.430Z,2.6
2022-11-22T23:06:27.248Z,2.1
2022-11-22T23:12:19.339Z,2.5
2022-11-22T23:18:10.475Z,2.2
2022-11-22T23:24:01.242Z,2.3
2022-11-22T23:29:51.306Z,2
2022-11-22T23:35:42.703Z,2.1
2022-11-22T23:41:33.256Z,2.1
2022-11-22T23:47:24.085Z,2.2
2022-11-22T23:53:14.438Z,2
2022-11-22T23:59:07.477Z,1.8
